Storm Lake, IA

6:38 AM CDT on September 05, 2015 (GMT -0500)
Ricklefs Home | | Change Station
CLOSE
Current Station
Personal Weather Station
Location: Storm Lake, IA
Elevation: 1414 ft
Nearby Weather Stations

Elev 1414 ft 42.65 °N, 95.19 °W | Updated 3 minutes ago

Mostly Cloudy
Mostly Cloudy
72.0 °F
Feels Like 72.0 °F
N
4.0
Wind Variable Wind from SSE
Gusts 4.0 mph

Today
High -- | Low -- °F
--% Chance of Precip.
Yesterday
High -- | Low -- °F
Precip. -- in
6:49 AM 7:48 PM
Waning Gibbous, 49% visible
Pressure 29.95 in
Visibility 9.0 miles
Clouds Mostly Cloudy 9000 ft
Dew Point 70 °F
Humidity 92%
Rainfall 0.05 in
Snow Depth Not available.
UV 0 out of 12
Pollen 11.00 out of 12
Air Quality Not available.
Flu Activity Not available.
METAR KSLB 051115Z AUTO 16009KT 9SM BKN090 22/21 A2995 RMK AO2
Pressure 29.95 in
Visibility 9.0 miles
Clouds Mostly Cloudy 9000 ft
Dew Point 70 °F
Humidity 92%
Rainfall 0.05 in
Snow Depth Not available.
UV 0 out of 12
Pollen 11.00 out of 12
Air Quality Not available.
Flu Activity Not available.
METAR KSLB 051115Z AUTO 16009KT 9SM BKN090 22/21 A2995 RMK AO2

10-Day Weather Forecast

×

Almanac

Astronomy

Sep. 05, 2015 Rise Set
Actual Time
Civil Twilight
Nautical Twilight
Astronomical Twilight
Moon
Length of Visible Light
Length of Day
Tomorrow will be .
, % of the Moon is Illuminated

Today's Extremes

State Highs State Lows

Community

WunderPhotos

Upload Photos

1,852,449 photos uploaded!

WunderBlogs® & News

Nearby

Air Quality

  Air Quality AQ Index Pollutant
Not available.

Snow Depth

Station Depth Elevation

Earthquake Activity

City Distance Mag. Time & Date
Minimum magnitude displayed is 2.5.

Coastal Water Temperatures

Place Temperature

Stations

Nearby Weather Stations

Station Location Temp. Windchill Dew Point Humidity Wind Precip. Elev Updated Type